Time;durP1;ratioP1;P1;durP2;ratioP2;P2;SDS_P1;SDS_P2;PMS_P1;PMS_P2;Temp;Humidity;BMP_temperature;BMP_pressure;BME280_temperature;BME280_humidity;BME280_pressure;Samples;Min_cycle;Max_cycle;Signal;HPM_P1;HPM_P2
2020/12/31 00:00:07;;;;;;;57.63;36.53;;;256.90;1996.80;;;;;;5053807;28;20056;-72
2020/12/31 00:02:33;;;;;;;63.00;36.97;;;256.90;2022.40;;;;;;5069406;28;20021;-69
2020/12/31 00:04:59;;;;;;;61.05;36.45;;;256.90;1996.80;;;;;;5053707;28;20513;-72
2020/12/31 00:07:26;;;;;;;65.15;39.97;;;256.80;1996.80;;;;;;5053770;28;20024;-69
2020/12/31 00:09:51;;;;;;;61.33;37.42;;;256.80;1996.80;;;;;;5053844;28;20491;-71
2020/12/31 00:12:18;;;;;;;60.30;37.45;;;256.80;2022.40;;;;;;5053822;28;20045;-71
2020/12/31 00:14:44;;;;;;;62.10;39.28;;;256.80;2022.40;;;;;;5053531;28;20031;-70
2020/12/31 00:17:10;;;;;;;63.75;39.22;;;256.80;1996.80;;;;;;5053899;28;20406;-71
2020/12/31 00:19:35;;;;;;;67.88;41.60;;;256.80;2022.40;;;;;;5053986;28;20029;-70
2020/12/31 00:22:01;;;;;;;74.90;45.13;;;256.70;2022.40;;;;;;5053802;28;20040;-70
2020/12/31 00:24:27;;;;;;;66.25;43.33;;;256.70;2022.40;;;;;;5053358;28;20425;-70
2020/12/31 00:26:53;;;;;;;66.65;43.55;;;256.60;2022.40;;;;;;5052144;28;20025;-72
2020/12/31 00:29:18;;;;;;;65.55;42.08;;;256.60;2022.40;;;;;;5052947;28;20087;-72
2020/12/31 00:31:44;;;;;;;66.97;41.72;;;256.60;2022.40;;;;;;5052891;28;20108;-70
2020/12/31 00:34:10;;;;;;;66.18;41.85;;;256.60;2022.40;;;;;;5068634;28;20383;-71
2020/12/31 00:36:35;;;;;;;69.90;43.33;;;256.60;2022.40;;;;;;5053620;28;20025;-71
2020/12/31 00:39:01;;;;;;;68.65;44.20;;;256.60;2022.40;;;;;;5053529;28;20025;-70
2020/12/31 00:41:27;;;;;;;76.28;44.72;;;256.60;2022.40;;;;;;5051689;28;20116;-69
2020/12/31 00:43:53;;;;;;;66.45;43.67;;;256.60;2022.40;;;;;;5053515;28;20025;-70
2020/12/31 00:46:18;;;;;;;65.25;40.38;;;256.60;2022.40;;;;;;5053622;28;20108;-71
2020/12/31 00:48:44;;;;;;;63.55;38.60;;;256.60;2022.40;;;;;;5053172;28;20037;-71
2020/12/31 00:51:10;;;;;;;57.70;36.70;;;256.60;2022.40;;;;;;5053162;28;20060;-72
2020/12/31 00:53:35;;;;;;;55.70;36.00;;;256.60;2022.40;;;;;;5053484;28;20029;-72
2020/12/31 00:56:02;;;;;;;83.72;48.85;;;256.60;2022.40;;;;;;5053454;28;20533;-70
2020/12/31 00:58:28;;;;;;;88.93;50.97;;;256.60;2022.40;;;;;;5070887;28;20035;-70
2020/12/31 01:00:53;;;;;;;96.88;53.80;;;256.60;2022.40;;;;;;5057275;28;20112;-70
2020/12/31 01:03:19;;;;;;;83.15;49.15;;;256.60;2022.40;;;;;;5057823;28;20025;-72
2020/12/31 01:05:48;;;;;;;93.00;52.33;;;256.60;2048.00;;;;;;5057114;28;20444;-71
2020/12/31 01:08:14;;;;;;;92.95;54.22;;;256.60;2022.40;;;;;;5056990;28;20041;-71
2020/12/31 01:10:39;;;;;;;82.90;50.30;;;256.60;2022.40;;;;;;5056966;28;20111;-71
2020/12/31 01:13:05;;;;;;;80.07;45.80;;;256.60;2048.00;;;;;;5056862;28;20390;-70
2020/12/31 01:15:31;;;;;;;84.65;48.83;;;256.70;2022.40;;;;;;5057078;28;20025;-70
2020/12/31 01:17:57;;;;;;;83.70;52.03;;;256.70;2022.40;;;;;;5056953;28;20448;-70
2020/12/31 01:20:23;;;;;;;78.03;49.63;;;256.60;2048.00;;;;;;5056879;28;20053;-71
2020/12/31 01:22:49;;;;;;;76.40;47.65;;;256.60;2048.00;;;;;;5057376;28;20045;-70
2020/12/31 01:25:14;;;;;;;72.65;44.25;;;256.70;2048.00;;;;;;5055373;28;20041;-71
2020/12/31 01:27:40;;;;;;;68.43;40.53;;;256.70;2048.00;;;;;;5056766;28;20020;-70
2020/12/31 01:30:06;;;;;;;67.20;41.42;;;256.70;2048.00;;;;;;5056362;28;20074;-70
2020/12/31 01:32:32;;;;;;;66.13;41.90;;;256.80;2022.40;;;;;;5056824;28;20025;-72
2020/12/31 01:34:58;;;;;;;68.60;40.25;;;256.80;2048.00;;;;;;5056684;28;20021;-71
2020/12/31 01:37:23;;;;;;;61.65;39.55;;;256.80;2022.40;;;;;;5056577;28;20412;-72
2020/12/31 01:39:49;;;;;;;64.00;39.35;;;256.80;2048.00;;;;;;5055085;28;20115;-71
2020/12/31 01:42:16;;;;;;;64.55;38.33;;;256.80;2022.40;;;;;;5056452;28;20048;-70
2020/12/31 01:44:42;;;;;;;59.78;36.72;;;256.80;2022.40;;;;;;5056240;28;20094;-70
2020/12/31 01:47:10;;;;;;;55.80;36.10;;;256.80;2022.40;;;;;;5056602;28;20033;-73
2020/12/31 01:49:38;;;;;;;60.38;36.65;;;256.80;2022.40;;;;;;5056490;28;20029;-71
2020/12/31 01:52:07;;;;;;;52.80;34.92;;;256.80;2022.40;;;;;;5056136;28;20027;-72
2020/12/31 01:54:33;;;;;;;51.53;33.33;;;256.80;2022.40;;;;;;5056416;28;20049;-71
2020/12/31 01:56:59;;;;;;;49.38;32.58;;;256.80;2022.40;;;;;;5056257;28;20477;-71
2020/12/31 01:59:25;;;;;;;50.40;31.75;;;256.80;2048.00;;;;;;5055890;28;20029;-71
2020/12/31 02:01:52;;;;;;;39.90;29.08;;;256.80;2048.00;;;;;;5056090;28;20053;-71
2020/12/31 02:04:18;;;;;;;44.45;29.10;;;256.80;2022.40;;;;;;5055588;28;20128;-71
2020/12/31 02:06:44;;;;;;;39.92;27.98;;;256.80;2048.00;;;;;;5056211;28;20395;-71
2020/12/31 02:09:11;;;;;;;43.00;25.15;;;256.80;2022.40;;;;;;5055356;28;20082;-71
2020/12/31 02:11:37;;;;;;;38.22;24.55;;;256.80;2022.40;;;;;;5071410;28;20531;-71
2020/12/31 02:14:03;;;;;;;36.35;23.27;;;256.80;2022.40;;;;;;5055702;28;20029;-70
2020/12/31 02:16:38;;;;;;;36.25;24.30;;;256.80;2022.40;;;;;;5071399;28;20163;-71
2020/12/31 02:19:08;;;;;;;34.95;24.67;;;256.80;2048.00;;;;;;5056086;28;20033;-70
2020/12/31 02:21:36;;;;;;;36.13;24.38;;;256.80;2022.40;;;;;;5055792;28;20025;-70
2020/12/31 02:24:06;;;;;;;36.45;23.88;;;256.80;2048.00;;;;;;5055970;28;20059;-70
2020/12/31 02:26:34;;;;;;;32.80;23.15;;;256.80;2048.00;;;;;;5055517;28;20459;-70
2020/12/31 02:29:02;;;;;;;33.30;21.52;;;256.80;2022.40;;;;;;5055391;28;20044;-70
2020/12/31 02:31:28;;;;;;;34.30;22.17;;;256.90;2022.40;;;;;;5055773;28;20035;-70
2020/12/31 02:33:56;;;;;;;36.17;24.52;;;256.80;2022.40;;;;;;5055840;28;20344;-70
2020/12/31 02:36:24;;;;;;;36.58;23.95;;;256.90;2048.00;;;;;;5070167;28;20540;-71
2020/12/31 02:38:51;;;;;;;36.42;24.55;;;256.90;2022.40;;;;;;5055526;28;20037;-70
2020/12/31 02:41:17;;;;;;;42.60;27.00;;;256.90;2022.40;;;;;;5055280;28;20017;-71
2020/12/31 02:43:43;;;;;;;39.13;25.95;;;256.90;2022.40;;;;;;5055531;28;20439;-70
2020/12/31 02:46:12;;;;;;;38.67;26.50;;;256.90;2022.40;;;;;;5055551;28;20021;-70
2020/12/31 02:48:39;;;;;;;42.85;25.88;;;256.90;2022.40;;;;;;5054685;28;20095;-70
2020/12/31 02:51:06;;;;;;;39.03;25.15;;;256.90;2022.40;;;;;;5055283;28;20025;-70
2020/12/31 02:53:32;;;;;;;35.55;25.30;;;256.90;2022.40;;;;;;5055117;28;20051;-70
2020/12/31 02:55:57;;;;;;;42.65;27.10;;;256.80;2022.40;;;;;;5054954;28;20017;-70
2020/12/31 02:58:23;;;;;;;36.97;25.08;;;256.90;2022.40;;;;;;5055155;28;20055;-70
2020/12/31 03:00:49;;;;;;;35.38;24.23;;;256.80;2022.40;;;;;;5055099;28;20026;-70
2020/12/31 03:03:15;;;;;;;35.97;24.45;;;256.80;2022.40;;;;;;5055018;28;20033;-70
2020/12/31 03:05:41;;;;;;;34.17;24.23;;;256.80;2022.40;;;;;;5054848;28;20045;-70
2020/12/31 03:08:07;;;;;;;34.92;24.48;;;256.80;2022.40;;;;;;5054978;28;20051;-70
2020/12/31 03:10:32;;;;;;;35.55;24.10;;;256.80;2022.40;;;;;;5054759;28;20095;-70
2020/12/31 03:12:58;;;;;;;39.33;25.42;;;256.80;2022.40;;;;;;5054863;28;20116;-70
2020/12/31 03:15:24;;;;;;;38.00;25.08;;;256.80;2022.40;;;;;;5054436;28;20414;-70
2020/12/31 03:17:50;;;;;;;33.90;23.73;;;256.70;2048.00;;;;;;5054782;28;20020;-70
2020/12/31 03:20:16;;;;;;;37.45;25.70;;;256.80;2022.40;;;;;;5054635;28;20052;-69
2020/12/31 03:22:42;;;;;;;40.53;27.80;;;256.80;2048.00;;;;;;5053875;28;20044;-69
2020/12/31 03:25:08;;;;;;;35.30;25.65;;;256.80;2022.40;;;;;;5054399;28;20108;-69
2020/12/31 03:27:34;;;;;;;36.65;25.27;;;256.80;2048.00;;;;;;5054581;28;20112;-69
2020/12/31 03:30:00;;;;;;;38.50;25.52;;;256.80;2048.00;;;;;;5054501;28;20029;-70
2020/12/31 03:32:26;;;;;;;40.20;27.30;;;256.80;2048.00;;;;;;5054546;28;20028;-70
2020/12/31 03:34:52;;;;;;;37.03;25.30;;;256.80;2048.00;;;;;;5054488;28;20394;-70
2020/12/31 03:37:18;;;;;;;35.80;23.67;;;256.80;2048.00;;;;;;5054243;28;20057;-70
2020/12/31 03:39:43;;;;;;;32.47;23.65;;;256.80;2048.00;;;;;;5069813;28;20484;-70
2020/12/31 03:42:10;;;;;;;33.25;24.40;;;256.80;2048.00;;;;;;5054090;28;20108;-69
2020/12/31 03:44:35;;;;;;;35.22;23.88;;;256.80;2048.00;;;;;;5054130;28;20062;-70
2020/12/31 03:47:02;;;;;;;32.17;24.10;;;256.80;2048.00;;;;;;5054080;28;20028;-70
2020/12/31 03:49:28;;;;;;;32.28;22.73;;;256.80;2048.00;;;;;;5054098;28;20036;-69
2020/12/31 03:51:54;;;;;;;33.05;23.60;;;256.80;2048.00;;;;;;5069416;28;20025;-69
2020/12/31 03:54:20;;;;;;;35.05;23.45;;;256.80;2048.00;;;;;;5053866;28;20115;-71
2020/12/31 03:56:45;;;;;;;33.33;22.33;;;256.80;2048.00;;;;;;5053773;28;20025;-71
2020/12/31 03:59:11;;;;;;;32.92;23.27;;;256.80;2048.00;;;;;;5054051;28;20029;-70
2020/12/31 04:01:37;;;;;;;33.17;23.65;;;256.90;2048.00;;;;;;5053931;28;20414;-70
2020/12/31 04:04:03;;;;;;;33.20;23.23;;;256.80;2048.00;;;;;;5069114;28;20483;-70
2020/12/31 04:06:29;;;;;;;38.92;26.88;;;256.80;2048.00;;;;;;5053797;28;20394;-72
2020/12/31 04:08:55;;;;;;;36.95;26.90;;;256.80;2048.00;;;;;;5053825;28;20040;-70
2020/12/31 04:11:21;;;;;;;42.33;29.23;;;256.80;2022.40;;;;;;5053611;28;20425;-71
2020/12/31 04:13:47;;;;;;;43.72;27.98;;;256.80;2048.00;;;;;;5053545;28;20021;-72
2020/12/31 04:16:13;;;;;;;42.80;28.30;;;256.80;2048.00;;;;;;5053543;28;20021;-70
2020/12/31 04:18:39;;;;;;;45.00;28.27;;;256.80;2048.00;;;;;;5053798;28;20086;-70
2020/12/31 04:21:05;;;;;;;36.55;26.95;;;256.80;2022.40;;;;;;5053911;28;20025;-71
2020/12/31 04:23:31;;;;;;;39.25;25.38;;;256.80;2022.40;;;;;;5053822;28;20025;-70
2020/12/31 04:25:57;;;;;;;39.75;26.70;;;256.80;2048.00;;;;;;5053473;28;20027;-70
2020/12/31 04:28:22;;;;;;;37.78;25.13;;;256.80;2048.00;;;;;;5053667;28;20375;-71
2020/12/31 04:30:49;;;;;;;37.35;25.67;;;256.80;2048.00;;;;;;5053456;28;20037;-71
2020/12/31 04:33:16;;;;;;;38.45;24.67;;;256.80;2048.00;;;;;;5057082;28;20025;-70
2020/12/31 04:35:42;;;;;;;38.78;24.58;;;256.80;2022.40;;;;;;5075636;28;20078;-69
2020/12/31 04:38:08;;;;;;;32.17;22.42;;;256.80;2048.00;;;;;;5060314;28;20024;-70
2020/12/31 04:40:34;;;;;;;33.33;23.05;;;256.80;2048.00;;;;;;5074458;28;20029;-70
2020/12/31 04:43:00;;;;;;;32.60;22.65;;;256.80;2022.40;;;;;;5060194;28;20036;-70
2020/12/31 04:45:28;;;;;;;28.02;20.27;;;256.70;2048.00;;;;;;5060203;28;20045;-70
2020/12/31 04:48:37;;;;;;;29.42;21.27;;;256.80;2048.00;;;;;;5060164;28;20021;-70
2020/12/31 04:51:06;;;;;;;26.90;19.95;;;256.80;2048.00;;;;;;4921888;29;20039;-70
2020/12/31 04:53:33;;;;;;;24.75;19.42;;;256.80;2048.00;;;;;;4921602;29;20048;-71
2020/12/31 04:56:01;;;;;;;25.75;19.52;;;256.70;2048.00;;;;;;4921565;29;20032;-70
2020/12/31 04:58:27;;;;;;;25.63;19.38;;;256.70;2048.00;;;;;;4921402;29;20040;-69
2020/12/31 05:00:53;;;;;;;30.30;21.38;;;256.70;2048.00;;;;;;4921429;28;20088;-69
2020/12/31 05:03:19;;;;;;;29.95;22.35;;;256.70;2048.00;;;;;;4921609;29;20475;-70
2020/12/31 05:05:45;;;;;;;28.23;21.25;;;256.70;2048.00;;;;;;4921413;29;20052;-69
2020/12/31 05:08:16;;;;;;;30.35;21.70;;;256.70;2048.00;;;;;;4921497;29;20424;-70
2020/12/31 05:10:51;;;;;;;29.20;21.75;;;256.70;2048.00;;;;;;4921458;29;20031;-70
2020/12/31 05:13:17;;;;;;;33.22;20.42;;;256.70;2048.00;;;;;;4921343;29;20028;-69
2020/12/31 05:15:43;;;;;;;28.60;20.48;;;256.70;2048.00;;;;;;4921815;29;20047;-70
2020/12/31 05:18:18;;;;;;;28.05;20.88;;;256.70;2048.00;;;;;;4921437;29;20032;-69
2020/12/31 05:20:46;;;;;;;28.17;19.27;;;256.70;2048.00;;;;;;4921283;29;20114;-69
2020/12/31 05:23:16;;;;;;;28.48;20.38;;;256.70;2073.60;;;;;;4921460;29;20028;-69
2020/12/31 05:25:42;;;;;;;27.20;19.30;;;256.70;2048.00;;;;;;4921221;29;20040;-69
2020/12/31 05:28:25;;;;;;;25.48;18.30;;;256.80;2048.00;;;;;;5004390;28;20517;-70
2020/12/31 05:30:55;;;;;;;26.33;18.08;;;256.80;2048.00;;;;;;5059714;28;20111;-69
2020/12/31 05:33:26;;;;;;;27.00;18.75;;;256.80;2048.00;;;;;;5059740;28;20021;-69
2020/12/31 05:35:52;;;;;;;26.33;19.92;;;256.80;2048.00;;;;;;5059801;28;20021;-70
2020/12/31 05:38:19;;;;;;;25.75;18.17;;;256.70;2073.60;;;;;;5059881;28;20162;-69
2020/12/31 05:41:01;;;;;;;28.67;19.55;;;256.80;2048.00;;;;;;5059204;28;20032;-69
2020/12/31 05:43:26;;;;;;;23.55;17.10;;;256.80;2048.00;;;;;;5059686;28;20025;-69
2020/12/31 05:46:08;;;;;;;23.38;16.65;;;256.70;2073.60;;;;;;5055563;28;20039;-69
2020/12/31 05:48:34;;;;;;;21.52;15.88;;;256.80;2048.00;;;;;;5056393;28;20153;-69
2020/12/31 05:51:20;;;;;;;22.83;15.05;;;256.70;2048.00;;;;;;5071326;28;20032;-70
2020/12/31 05:53:48;;;;;;;22.88;16.85;;;256.70;2073.60;;;;;;5071900;28;20033;-69
2020/12/31 05:56:18;;;;;;;24.27;17.20;;;256.70;2073.60;;;;;;5056028;28;20043;-71
2020/12/31 05:58:49;;;;;;;24.17;16.92;;;256.70;2073.60;;;;;;5056227;28;20445;-69
2020/12/31 06:01:15;;;;;;;26.95;17.60;;;256.70;2073.60;;;;;;5056019;28;20367;-69
2020/12/31 06:03:50;;;;;;;29.58;18.50;;;256.80;2073.60;;;;;;5055611;28;20032;-70
2020/12/31 06:06:21;;;;;;;24.02;17.83;;;256.70;2073.60;;;;;;5055323;28;20033;-70
2020/12/31 06:09:03;;;;;;;25.08;16.58;;;256.70;2073.60;;;;;;5055826;28;20052;-70
2020/12/31 06:11:37;;;;;;;21.05;15.52;;;256.70;2073.60;;;;;;5055381;28;20051;-69
2020/12/31 06:14:04;;;;;;;21.92;15.70;;;256.70;2073.60;;;;;;5055970;28;20479;-69
2020/12/31 06:16:37;;;;;;;22.77;15.65;;;256.60;2073.60;;;;;;5055678;28;20025;-70
2020/12/31 06:19:21;;;;;;;29.83;17.75;;;256.70;2073.60;;;;;;5055833;28;20481;-70
2020/12/31 06:22:02;;;;;;;29.40;21.13;;;256.90;2150.40;;;;;;5054341;28;20398;-70
2020/12/31 06:24:47;;;;;;;85.65;46.20;;;256.90;2073.60;;;;;;5055764;28;20033;-69
2020/12/31 06:27:15;;;;;;;79.75;48.65;;;256.90;2073.60;;;;;;5055418;28;20021;-70
2020/12/31 06:29:40;;;;;;;97.07;64.15;;;256.80;2073.60;;;;;;5055616;28;20065;-70
2020/12/31 06:32:15;;;;;;;83.72;63.17;;;256.90;2099.20;;;;;;5055603;28;20028;-70
2020/12/31 06:34:41;;;;;;;55.28;38.50;;;256.90;2073.60;;;;;;5055565;28;20083;-69
2020/12/31 06:37:11;;;;;;;44.65;31.38;;;256.80;2073.60;;;;;;5055609;28;20024;-69
2020/12/31 06:39:38;;;;;;;32.83;23.15;;;256.80;2073.60;;;;;;5055250;28;20467;-69
2020/12/31 06:42:03;;;;;;;32.38;23.48;;;256.80;2073.60;;;;;;5070621;28;20356;-69
2020/12/31 06:44:30;;;;;;;31.90;22.17;;;256.80;2073.60;;;;;;5055204;28;20116;-69
2020/12/31 06:46:57;;;;;;;33.47;21.98;;;256.90;2073.60;;;;;;5055313;28;20070;-70
2020/12/31 06:49:23;;;;;;;43.03;25.58;;;256.80;2073.60;;;;;;5055100;28;20060;-69
2020/12/31 06:51:48;;;;;;;52.55;31.13;;;256.80;2073.60;;;;;;5054990;28;20078;-69
2020/12/31 06:54:30;;;;;;;56.08;31.77;;;256.80;2073.60;;;;;;5055164;28;20036;-69
2020/12/31 06:56:55;;;;;;;55.13;31.98;;;256.80;2073.60;;;;;;5054939;28;20021;-71
2020/12/31 06:59:31;;;;;;;48.85;29.17;;;256.80;2073.60;;;;;;5055039;28;20036;-69
2020/12/31 07:01:59;;;;;;;47.58;31.15;;;256.80;2073.60;;;;;;5055287;28;20032;-69
2020/12/31 07:04:26;;;;;;;42.78;27.02;;;256.90;2073.60;;;;;;5069380;28;20039;-69
2020/12/31 07:06:51;;;;;;;42.95;26.27;;;256.80;2073.60;;;;;;5055037;28;20071;-69
2020/12/31 07:09:35;;;;;;;37.83;24.63;;;256.90;2048.00;;;;;;5054764;28;20461;-69
2020/12/31 07:12:06;;;;;;;43.55;27.13;;;256.80;2073.60;;;;;;5054735;28;20021;-69
2020/12/31 07:14:36;;;;;;;52.70;32.63;;;256.80;2073.60;;;;;;5054655;28;20032;-69
2020/12/31 07:17:06;;;;;;;52.17;30.17;;;256.90;2048.00;;;;;;5054704;28;20028;-69
2020/12/31 07:19:36;;;;;;;52.13;30.08;;;256.90;2048.00;;;;;;5054910;28;20035;-70
2020/12/31 07:22:22;;;;;;;49.42;29.63;;;256.90;2048.00;;;;;;5054344;28;20462;-69
2020/12/31 07:25:06;;;;;;;49.88;30.35;;;256.90;2048.00;;;;;;5054654;28;20390;-70
2020/12/31 07:27:41;;;;;;;55.53;34.17;;;256.90;2073.60;;;;;;5054682;28;20036;-70
2020/12/31 07:30:07;;;;;;;50.90;34.75;;;256.90;2048.00;;;;;;5054566;28;20041;-69
2020/12/31 07:32:55;;;;;;;61.55;40.38;;;256.90;2073.60;;;;;;5054247;28;20355;-70
2020/12/31 07:35:32;;;;;;;59.50;39.50;;;256.90;2073.60;;;;;;5054563;28;20029;-70
2020/12/31 07:38:09;;;;;;;57.97;40.42;;;281.60;2073.60;;;;;;5054390;28;20029;-70
2020/12/31 07:40:40;;;;;;;66.20;42.47;;;281.60;2073.60;;;;;;5052973;28;20017;-70
2020/12/31 07:43:08;;;;;;;68.43;39.95;;;281.60;2099.20;;;;;;5052178;28;20028;-73
2020/12/31 07:45:34;;;;;;;71.63;46.83;;;281.70;2124.80;;;;;;5053365;28;20021;-70
2020/12/31 07:48:00;;;;;;;64.13;42.40;;;281.80;2099.20;;;;;;5054142;28;20032;-71
2020/12/31 07:50:27;;;;;;;70.97;42.22;;;281.80;2073.60;;;;;;5054323;28;20494;-70
2020/12/31 07:52:53;;;;;;;72.55;37.58;;;281.80;2099.20;;;;;;5054033;28;20024;-71
2020/12/31 07:55:19;;;;;;;69.25;43.13;;;281.90;2099.20;;;;;;5054000;28;20021;-69
2020/12/31 07:57:45;;;;;;;59.40;41.28;;;281.90;2099.20;;;;;;5053820;28;20082;-70
2020/12/31 08:00:21;;;;;;;59.42;40.85;;;282.00;2073.60;;;;;;5054062;28;20386;-70
2020/12/31 08:02:52;;;;;;;60.13;39.50;;;282.00;2073.60;;;;;;5053805;28;20530;-70
2020/12/31 08:05:20;;;;;;;60.85;40.42;;;282.00;2073.60;;;;;;5053646;28;20391;-69
2020/12/31 08:07:54;;;;;;;57.90;38.40;;;282.00;2073.60;;;;;;5053487;28;20029;-72
2020/12/31 08:10:20;;;;;;;57.40;37.88;;;282.00;2073.60;;;;;;5053907;28;20037;-69
2020/12/31 08:12:57;;;;;;;58.40;38.10;;;282.00;2073.60;;;;;;5053810;28;20095;-70
2020/12/31 08:15:24;;;;;;;53.70;35.80;;;282.00;2073.60;;;;;;5054347;28;20033;-70
2020/12/31 08:17:51;;;;;;;53.60;34.28;;;282.00;2073.60;;;;;;5053618;28;20516;-71
2020/12/31 08:20:21;;;;;;;48.33;31.55;;;282.00;2073.60;;;;;;5053838;28;20136;-70
2020/12/31 08:22:59;;;;;;;48.15;31.17;;;282.00;2073.60;;;;;;5053808;28;20025;-71
2020/12/31 08:25:31;;;;;;;44.20;29.50;;;282.00;2073.60;;;;;;5053592;28;20033;-71
2020/12/31 08:27:57;;;;;;;44.10;28.27;;;282.00;2073.60;;;;;;5053505;28;20028;-71
2020/12/31 08:30:24;;;;;;;42.38;28.25;;;282.00;2073.60;;;;;;5053839;28;20108;-71
2020/12/31 08:32:49;;;;;;;46.88;28.27;;;282.10;2073.60;;;;;;5053693;28;20017;-71
2020/12/31 08:35:25;;;;;;;42.97;25.77;;;282.10;2099.20;;;;;;5053647;28;20024;-71
2020/12/31 08:38:14;;;;;;;41.65;25.17;;;282.10;2073.60;;;;;;5053468;28;20028;-71
2020/12/31 08:40:55;;;;;;;56.92;33.75;;;282.10;2073.60;;;;;;5047701;28;20029;-71
2020/12/31 08:43:30;;;;;;;62.60;39.95;;;282.10;2073.60;;;;;;5053515;28;20068;-71
2020/12/31 08:45:57;;;;;;;79.82;50.50;;;282.10;2073.60;;;;;;5053490;28;20103;-70
2020/12/31 08:48:25;;;;;;;95.93;58.30;;;282.20;2073.60;;;;;;5053467;28;20118;-71
2020/12/31 08:51:10;;;;;;;89.50;58.10;;;282.20;2073.60;;;;;;5053520;28;20517;-70
2020/12/31 08:54:01;;;;;;;74.72;48.03;;;282.20;2073.60;;;;;;5053309;28;20028;-70
2020/12/31 08:56:31;;;;;;;86.72;52.20;;;282.20;2073.60;;;;;;5053293;28;20052;-70
2020/12/31 08:59:09;;;;;;;102.90;61.60;;;282.20;2073.60;;;;;;5052172;28;20025;-69
2020/12/31 09:01:36;;;;;;;105.70;65.80;;;282.20;2073.60;;;;;;5053231;28;20029;-69
2020/12/31 09:04:10;;;;;;;134.32;83.25;;;282.20;2073.60;;;;;;5053184;28;20021;-70
2020/12/31 09:06:37;;;;;;;;;;;282.20;2073.60;;;;;;5053645;28;20021;-69
2020/12/31 09:09:03;;;;;;;107.57;69.28;;;282.20;2073.60;;;;;;5053466;28;19920;-69
2020/12/31 09:11:29;;;;;;;94.32;61.28;;;282.20;2073.60;;;;;;5053081;28;20088;-70
2020/12/31 09:14:06;;;;;;;76.28;48.08;;;282.30;2073.60;;;;;;5052908;28;20482;-70
2020/12/31 09:16:32;;;;;;;60.40;40.17;;;282.30;2073.60;;;;;;5053370;28;20098;-70
2020/12/31 09:19:00;;;;;;;49.33;32.72;;;282.40;2073.60;;;;;;5053645;28;20044;-70
2020/12/31 09:21:29;;;;;;;44.67;27.80;;;282.40;2048.00;;;;;;5056847;28;20021;-70
2020/12/31 09:23:56;;;;;;;43.17;26.67;;;282.50;2073.60;;;;;;5057093;28;20470;-70
2020/12/31 09:26:28;;;;;;;50.80;25.80;;;282.50;2073.60;;;;;;5055542;28;20035;-70
2020/12/31 09:28:54;;;;;;;40.05;22.42;;;282.50;2048.00;;;;;;5056717;28;20078;-70
2020/12/31 09:31:23;;;;;;;35.28;19.00;;;282.50;2048.00;;;;;;5055310;28;20546;-69
2020/12/31 09:33:52;;;;;;;47.67;22.30;;;282.50;2048.00;;;;;;5056763;28;20036;-69
2020/12/31 09:36:23;;;;;;;38.80;20.00;;;282.50;2048.00;;;;;;5055440;28;20021;-70
2020/12/31 09:38:49;;;;;;;33.47;18.58;;;282.50;2048.00;;;;;;5056879;28;20029;-69
2020/12/31 09:41:14;;;;;;;36.50;18.98;;;282.50;2048.00;;;;;;5056633;28;20445;-70
2020/12/31 09:43:40;;;;;;;38.80;19.15;;;282.50;2048.00;;;;;;5056645;28;20060;-70
2020/12/31 09:46:06;;;;;;;30.50;17.92;;;282.50;2048.00;;;;;;5056282;28;20024;-70
2020/12/31 09:48:32;;;;;;;35.85;19.58;;;282.50;2048.00;;;;;;5056443;28;20043;-71
2020/12/31 09:50:57;;;;;;;43.47;25.92;;;282.50;2048.00;;;;;;5056364;28;20060;-71
2020/12/31 09:53:23;;;;;;;46.50;28.45;;;282.50;2048.00;;;;;;5056528;28;20056;-71
2020/12/31 09:55:49;;;;;;;45.95;29.90;;;282.50;2048.00;;;;;;5055064;28;20536;-71
2020/12/31 09:58:14;;;;;;;45.05;31.85;;;307.20;2073.60;;;;;;5056330;28;20021;-70
2020/12/31 10:00:40;;;;;;;47.55;31.95;;;282.50;2048.00;;;;;;5056173;28;20077;-70
2020/12/31 10:03:06;;;;;;;57.83;36.67;;;307.20;2073.60;;;;;;5056195;28;20025;-70
2020/12/31 10:05:34;;;;;;;64.72;42.60;;;282.50;2048.00;;;;;;5056024;28;20048;-70
2020/12/31 10:07:59;;;;;;;72.00;40.08;;;282.50;2048.00;;;;;;5055257;28;20025;-71
2020/12/31 10:10:25;;;;;;;82.25;38.63;;;307.20;2099.20;;;;;;5056343;28;20493;-73
2020/12/31 10:12:51;;;;;;;247.18;47.45;;;307.20;2099.20;;;;;;5056015;28;20094;-71
2020/12/31 10:15:17;;;;;;;80.05;36.78;;;307.20;2099.20;;;;;;5056124;28;20059;-70
2020/12/31 10:17:42;;;;;;;72.30;41.75;;;307.30;2099.20;;;;;;5056011;28;20481;-70
2020/12/31 10:20:08;;;;;;;71.80;41.50;;;307.30;2073.60;;;;;;5055832;28;20017;-70
2020/12/31 10:22:34;;;;;;;71.70;44.55;;;307.30;2073.60;;;;;;5054517;28;20033;-70
2020/12/31 10:24:59;;;;;;;60.53;41.13;;;307.40;2073.60;;;;;;5055822;28;20578;-70
2020/12/31 10:27:25;;;;;;;59.60;39.25;;;307.40;2073.60;;;;;;5054114;28;20079;-70
2020/12/31 10:29:52;;;;;;;64.45;40.50;;;307.40;2073.60;;;;;;5053698;28;20029;-70
2020/12/31 10:32:18;;;;;;;71.55;43.50;;;307.30;2073.60;;;;;;5055476;28;20029;-71
2020/12/31 10:34:44;;;;;;;73.90;46.35;;;307.30;2073.60;;;;;;5055656;28;20047;-71
2020/12/31 10:37:10;;;;;;;61.90;43.25;;;307.30;2073.60;;;;;;5055384;28;20021;-70
2020/12/31 10:39:35;;;;;;;102.43;59.63;;;307.30;2073.60;;;;;;5054526;28;20029;-71
2020/12/31 10:42:01;;;;;;;84.60;49.33;;;307.30;2073.60;;;;;;5055352;28;20056;-71
2020/12/31 10:44:27;;;;;;;71.45;43.65;;;307.30;2073.60;;;;;;5054694;28;20035;-71
2020/12/31 10:46:55;;;;;;;63.55;38.42;;;307.30;2073.60;;;;;;5055459;28;20045;-70
2020/12/31 10:49:23;;;;;;;60.45;36.45;;;307.20;2073.60;;;;;;5055405;28;20387;-77
2020/12/31 10:51:49;;;;;;;64.45;39.47;;;307.30;2073.60;;;;;;5055140;28;20020;-73
2020/12/31 10:54:15;;;;;;;73.30;41.53;;;307.20;2073.60;;;;;;5055308;28;20029;-73
2020/12/31 10:56:41;;;;;;;74.57;44.50;;;307.30;2073.60;;;;;;5055003;28;20025;-72
2020/12/31 10:59:07;;;;;;;119.35;65.25;;;307.30;2073.60;;;;;;5055148;28;20033;-73
2020/12/31 11:01:32;;;;;;;116.30;62.58;;;307.20;2073.60;;;;;;5055279;28;20048;-74
2020/12/31 11:03:58;;;;;;;73.03;38.88;;;307.30;2073.60;;;;;;5054899;28;20455;-72
2020/12/31 11:06:26;;;;;;;52.70;32.40;;;307.30;2073.60;;;;;;5053705;28;20120;-73
2020/12/31 11:08:53;;;;;;;59.53;36.30;;;307.30;2073.60;;;;;;5054674;28;20037;-73
2020/12/31 11:11:30;;;;;;;65.15;38.30;;;307.30;2048.00;;;;;;5054917;28;20017;-76
2020/12/31 11:13:57;;;;;;;168.75;80.65;;;307.30;2073.60;;;;;;5054744;28;20060;-73
2020/12/31 11:16:23;;;;;;;89.90;49.00;;;307.30;2073.60;;;;;;5054064;28;20017;-72
2020/12/31 11:18:49;;;;;;;66.78;34.50;;;307.30;2073.60;;;;;;5054913;28;20021;-73
2020/12/31 11:21:18;;;;;;;62.90;31.38;;;307.20;2073.60;;;;;;5052887;28;20029;-73
2020/12/31 11:23:43;;;;;;;76.47;44.75;;;307.20;2073.60;;;;;;5054882;28;20035;-73
2020/12/31 11:26:21;;;;;;;72.55;43.33;;;307.20;2073.60;;;;;;5054675;28;20025;-73
2020/12/31 11:28:51;;;;;;;163.23;100.60;;;307.20;2073.60;;;;;;5054105;28;20033;-73
2020/12/31 11:31:27;;;;;;;136.23;99.63;;;307.20;2073.60;;;;;;5053875;28;20043;-73
2020/12/31 11:33:55;;;;;;;114.45;93.72;;;282.50;2048.00;;;;;;5054532;28;20552;-73
2020/12/31 11:36:21;;;;;;;83.25;61.15;;;282.50;2073.60;;;;;;5054581;28;20017;-73
2020/12/31 11:38:49;;;;;;;130.57;100.03;;;282.40;2073.60;;;;;;5054422;28;20027;-72
2020/12/31 11:41:15;;;;;;;111.70;80.50;;;282.40;2073.60;;;;;;5054224;28;20090;-71
2020/12/31 11:43:40;;;;;;;101.93;68.97;;;282.40;2073.60;;;;;;5052198;28;20021;-75
2020/12/31 11:46:07;;;;;;;119.35;87.38;;;282.40;2099.20;;;;;;5053651;28;20023;-72
2020/12/31 11:48:34;;;;;;;90.68;66.10;;;282.40;2073.60;;;;;;5053146;28;20025;-71
2020/12/31 11:51:01;;;;;;;88.18;55.60;;;282.40;2073.60;;;;;;5054073;28;20116;-72
2020/12/31 11:53:27;;;;;;;85.15;56.05;;;282.40;2150.40;;;;;;5054209;28;20471;-71
2020/12/31 11:55:54;;;;;;;86.25;56.53;;;282.40;2099.20;;;;;;5053899;28;20403;-72
2020/12/31 11:58:20;;;;;;;94.85;62.50;;;282.40;2073.60;;;;;;5053053;28;20049;-70
2020/12/31 12:00:46;;;;;;;75.38;51.65;;;282.40;2073.60;;;;;;5052771;28;20021;-70
2020/12/31 12:03:12;;;;;;;67.10;44.88;;;282.40;2073.60;;;;;;5052962;28;20024;-71